sensor_id;sensor_type;location;lat;lon;timestamp;pressure;altitude;pressure_sealevel;temperature;humidity
75006;BME280;63553;51.814;4.600;2023-11-21T00:01:43;101254.13;;;7.12;100.00
75006;BME280;63553;51.814;4.600;2023-11-21T00:04:09;101256.91;;;7.07;100.00
75006;BME280;63553;51.814;4.600;2023-11-21T00:06:34;101253.91;;;7.04;100.00
75006;BME280;63553;51.814;4.600;2023-11-21T00:08:59;101256.66;;;7.04;100.00
75006;BME280;63553;51.814;4.600;2023-11-21T00:11:25;101256.13;;;7.02;100.00
75006;BME280;63553;51.814;4.600;2023-11-21T00:13:51;101263.13;;;6.94;100.00
75006;BME280;63553;51.814;4.600;2023-11-21T00:16:16;101254.84;;;6.89;100.00
75006;BME280;63553;51.814;4.600;2023-11-21T00:18:41;101253.56;;;7.15;99.85
75006;BME280;63553;51.814;4.600;2023-11-21T00:21:08;101260.19;;;7.14;99.11
75006;BME280;63553;51.814;4.600;2023-11-21T00:23:34;101267.31;;;6.87;99.39
75006;BME280;63553;51.814;4.600;2023-11-21T00:25:59;101262.41;;;6.79;100.00
75006;BME280;63553;51.814;4.600;2023-11-21T00:28:25;101263.53;;;6.72;100.00
75006;BME280;63553;51.814;4.600;2023-11-21T00:30:51;101267.91;;;6.79;100.00
75006;BME280;63553;51.814;4.600;2023-11-21T00:33:16;101261.91;;;6.66;100.00
75006;BME280;63553;51.814;4.600;2023-11-21T00:35:41;101262.50;;;6.63;100.00
75006;BME280;63553;51.814;4.600;2023-11-21T00:38:07;101261.88;;;6.71;100.00
75006;BME280;63553;51.814;4.600;2023-11-21T00:40:33;101267.88;;;6.84;100.00
75006;BME280;63553;51.814;4.600;2023-11-21T00:42:59;101270.13;;;6.82;100.00
75006;BME280;63553;51.814;4.600;2023-11-21T00:45:24;101272.00;;;6.91;100.00
75006;BME280;63553;51.814;4.600;2023-11-21T00:47:50;101277.09;;;7.08;100.00
75006;BME280;63553;51.814;4.600;2023-11-21T00:50:15;101263.22;;;7.18;100.00
75006;BME280;63553;51.814;4.600;2023-11-21T00:52:41;101281.59;;;7.33;100.00
75006;BME280;63553;51.814;4.600;2023-11-21T00:55:06;101275.19;;;7.37;100.00
75006;BME280;63553;51.814;4.600;2023-11-21T00:57:33;101277.34;;;7.45;100.00
75006;BME280;63553;51.814;4.600;2023-11-21T00:59:58;101280.41;;;7.44;100.00
75006;BME280;63553;51.814;4.600;2023-11-21T01:02:26;101278.13;;;7.51;100.00
75006;BME280;63553;51.814;4.600;2023-11-21T01:04:52;101282.69;;;7.65;99.79
75006;BME280;63553;51.814;4.600;2023-11-21T01:07:17;101278.56;;;7.63;100.00
75006;BME280;63553;51.814;4.600;2023-11-21T01:09:45;101282.34;;;7.72;100.00
75006;BME280;63553;51.814;4.600;2023-11-21T01:12:11;101276.53;;;7.97;99.32
75006;BME280;63553;51.814;4.600;2023-11-21T01:14:36;101278.28;;;7.88;99.10
75006;BME280;63553;51.814;4.600;2023-11-21T01:17:01;101276.09;;;7.85;99.59
75006;BME280;63553;51.814;4.600;2023-11-21T01:19:29;101282.28;;;7.77;99.81
75006;BME280;63553;51.814;4.600;2023-11-21T01:21:54;101290.00;;;7.80;100.00
75006;BME280;63553;51.814;4.600;2023-11-21T01:24:19;101295.28;;;7.76;100.00
75006;BME280;63553;51.814;4.600;2023-11-21T01:26:45;101292.78;;;7.80;100.00
75006;BME280;63553;51.814;4.600;2023-11-21T01:29:11;101299.41;;;7.79;100.00
75006;BME280;63553;51.814;4.600;2023-11-21T01:31:37;101305.47;;;7.81;100.00
75006;BME280;63553;51.814;4.600;2023-11-21T01:34:02;101312.81;;;7.96;100.00
75006;BME280;63553;51.814;4.600;2023-11-21T01:36:31;101313.09;;;7.94;100.00
75006;BME280;63553;51.814;4.600;2023-11-21T01:38:57;101317.22;;;7.97;100.00
75006;BME280;63553;51.814;4.600;2023-11-21T01:41:25;101319.75;;;7.93;100.00
75006;BME280;63553;51.814;4.600;2023-11-21T01:43:52;101326.59;;;8.01;100.00
75006;BME280;63553;51.814;4.600;2023-11-21T01:46:18;101333.19;;;8.05;100.00
75006;BME280;63553;51.814;4.600;2023-11-21T01:48:45;101330.13;;;8.06;100.00
75006;BME280;63553;51.814;4.600;2023-11-21T01:51:11;101337.88;;;8.09;100.00
75006;BME280;63553;51.814;4.600;2023-11-21T01:53:36;101330.06;;;8.11;100.00
75006;BME280;63553;51.814;4.600;2023-11-21T01:56:02;101328.44;;;8.10;100.00
75006;BME280;63553;51.814;4.600;2023-11-21T01:58:28;101332.16;;;8.24;99.88
75006;BME280;63553;51.814;4.600;2023-11-21T02:00:54;101334.63;;;8.26;99.68
75006;BME280;63553;51.814;4.600;2023-11-21T02:03:20;101337.69;;;8.24;100.00
75006;BME280;63553;51.814;4.600;2023-11-21T02:05:45;101338.53;;;8.25;100.00
75006;BME280;63553;51.814;4.600;2023-11-21T02:08:11;101346.53;;;8.26;100.00
75006;BME280;63553;51.814;4.600;2023-11-21T02:10:36;101347.13;;;8.23;100.00
75006;BME280;63553;51.814;4.600;2023-11-21T02:13:03;101338.81;;;8.23;100.00
75006;BME280;63553;51.814;4.600;2023-11-21T02:15:29;101355.97;;;8.25;100.00
75006;BME280;63553;51.814;4.600;2023-11-21T02:17:55;101344.84;;;8.30;100.00
75006;BME280;63553;51.814;4.600;2023-11-21T02:20:21;101347.88;;;8.34;100.00
75006;BME280;63553;51.814;4.600;2023-11-21T02:22:52;101349.25;;;8.31;100.00
75006;BME280;63553;51.814;4.600;2023-11-21T02:25:32;101357.34;;;8.28;100.00
75006;BME280;63553;51.814;4.600;2023-11-21T02:28:00;101350.34;;;8.35;100.00
75006;BME280;63553;51.814;4.600;2023-11-21T02:30:26;101349.97;;;8.42;100.00
75006;BME280;63553;51.814;4.600;2023-11-21T02:32:57;101346.91;;;8.44;100.00
75006;BME280;63553;51.814;4.600;2023-11-21T02:35:23;101351.22;;;8.55;100.00
75006;BME280;63553;51.814;4.600;2023-11-21T02:37:49;101344.44;;;8.42;100.00
75006;BME280;63553;51.814;4.600;2023-11-21T02:40:15;101343.13;;;8.58;100.00
75006;BME280;63553;51.814;4.600;2023-11-21T02:42:45;101356.75;;;8.55;99.95
75006;BME280;63553;51.814;4.600;2023-11-21T02:45:14;101352.34;;;8.54;100.00
75006;BME280;63553;51.814;4.600;2023-11-21T02:47:42;101362.31;;;8.55;100.00
75006;BME280;63553;51.814;4.600;2023-11-21T02:50:08;101357.28;;;8.57;100.00
75006;BME280;63553;51.814;4.600;2023-11-21T02:52:34;101365.47;;;8.67;100.00
75006;BME280;63553;51.814;4.600;2023-11-21T02:55:00;101366.88;;;8.64;100.00
75006;BME280;63553;51.814;4.600;2023-11-21T02:57:26;101352.22;;;8.64;100.00
75006;BME280;63553;51.814;4.600;2023-11-21T02:59:51;101357.22;;;8.62;99.62
75006;BME280;63553;51.814;4.600;2023-11-21T03:02:17;101361.31;;;8.46;100.00
75006;BME280;63553;51.814;4.600;2023-11-21T03:04:42;101364.66;;;8.43;100.00
75006;BME280;63553;51.814;4.600;2023-11-21T03:07:08;101362.13;;;8.46;100.00
75006;BME280;63553;51.814;4.600;2023-11-21T03:09:34;101357.53;;;8.36;100.00
75006;BME280;63553;51.814;4.600;2023-11-21T03:12:00;101358.94;;;8.34;100.00
75006;BME280;63553;51.814;4.600;2023-11-21T03:14:25;101360.22;;;8.42;100.00
75006;BME280;63553;51.814;4.600;2023-11-21T03:16:50;101364.91;;;8.46;100.00
75006;BME280;63553;51.814;4.600;2023-11-21T03:19:16;101368.47;;;8.47;100.00
75006;BME280;63553;51.814;4.600;2023-11-21T03:21:41;101369.06;;;8.44;100.00
75006;BME280;63553;51.814;4.600;2023-11-21T03:24:06;101378.53;;;8.43;100.00
75006;BME280;63553;51.814;4.600;2023-11-21T03:26:32;101367.44;;;8.43;100.00
75006;BME280;63553;51.814;4.600;2023-11-21T03:28:57;101374.56;;;8.49;100.00
75006;BME280;63553;51.814;4.600;2023-11-21T03:31:23;101372.63;;;8.49;100.00
75006;BME280;63553;51.814;4.600;2023-11-21T03:33:48;101377.44;;;8.62;100.00
75006;BME280;63553;51.814;4.600;2023-11-21T03:36:13;101381.13;;;8.58;100.00
75006;BME280;63553;51.814;4.600;2023-11-21T03:38:40;101377.28;;;8.54;100.00
75006;BME280;63553;51.814;4.600;2023-11-21T03:41:06;101384.41;;;8.60;100.00
75006;BME280;63553;51.814;4.600;2023-11-21T03:43:32;101399.84;;;8.66;100.00
75006;BME280;63553;51.814;4.600;2023-11-21T03:45:57;101394.84;;;8.68;100.00
75006;BME280;63553;51.814;4.600;2023-11-21T03:48:22;101405.88;;;8.73;100.00
75006;BME280;63553;51.814;4.600;2023-11-21T03:50:48;101400.34;;;8.73;100.00
75006;BME280;63553;51.814;4.600;2023-11-21T03:53:14;101396.97;;;8.76;100.00
75006;BME280;63553;51.814;4.600;2023-11-21T03:55:39;101404.66;;;8.79;100.00
75006;BME280;63553;51.814;4.600;2023-11-21T03:58:04;101418.53;;;8.79;100.00
75006;BME280;63553;51.814;4.600;2023-11-21T04:00:30;101416.53;;;8.84;100.00
75006;BME280;63553;51.814;4.600;2023-11-21T04:02:55;101417.31;;;8.90;100.00
75006;BME280;63553;51.814;4.600;2023-11-21T04:05:21;101421.47;;;9.11;100.00
75006;BME280;63553;51.814;4.600;2023-11-21T04:07:49;101420.03;;;9.14;100.00
75006;BME280;63553;51.814;4.600;2023-11-21T04:10:16;101416.78;;;9.07;100.00
75006;BME280;63553;51.814;4.600;2023-11-21T04:12:42;101426.25;;;9.24;100.00
75006;BME280;63553;51.814;4.600;2023-11-21T04:15:07;101432.50;;;9.35;99.95
75006;BME280;63553;51.814;4.600;2023-11-21T04:17:36;101433.09;;;9.32;99.58
75006;BME280;63553;51.814;4.600;2023-11-21T04:20:03;101434.66;;;9.19;100.00
75006;BME280;63553;51.814;4.600;2023-11-21T04:22:33;101441.03;;;9.20;100.00
75006;BME280;63553;51.814;4.600;2023-11-21T04:24:58;101439.97;;;9.16;100.00
75006;BME280;63553;51.814;4.600;2023-11-21T04:27:24;101444.63;;;9.20;100.00
75006;BME280;63553;51.814;4.600;2023-11-21T04:29:49;101449.94;;;9.17;100.00
75006;BME280;63553;51.814;4.600;2023-11-21T04:32:14;101449.34;;;9.20;100.00
75006;BME280;63553;51.814;4.600;2023-11-21T04:34:39;101458.13;;;9.27;100.00
75006;BME280;63553;51.814;4.600;2023-11-21T04:37:05;101458.44;;;9.25;100.00
75006;BME280;63553;51.814;4.600;2023-11-21T04:39:31;101456.72;;;9.29;100.00
75006;BME280;63553;51.814;4.600;2023-11-21T04:41:57;101458.88;;;9.32;100.00
75006;BME280;63553;51.814;4.600;2023-11-21T04:44:22;101458.34;;;9.30;100.00
75006;BME280;63553;51.814;4.600;2023-11-21T04:46:47;101458.28;;;9.35;100.00
75006;BME280;63553;51.814;4.600;2023-11-21T04:49:13;101459.47;;;9.85;99.14
75006;BME280;63553;51.814;4.600;2023-11-21T04:51:39;101456.75;;;9.80;98.39
75006;BME280;63553;51.814;4.600;2023-11-21T04:54:04;101462.22;;;9.53;99.32
75006;BME280;63553;51.814;4.600;2023-11-21T04:56:31;101457.53;;;9.48;100.00
75006;BME280;63553;51.814;4.600;2023-11-21T04:58:56;101472.38;;;9.39;100.00
75006;BME280;63553;51.814;4.600;2023-11-21T05:01:21;101479.00;;;9.43;100.00
75006;BME280;63553;51.814;4.600;2023-11-21T05:03:47;101481.03;;;9.37;100.00
75006;BME280;63553;51.814;4.600;2023-11-21T05:06:13;101483.72;;;9.42;100.00
75006;BME280;63553;51.814;4.600;2023-11-21T05:08:39;101488.50;;;9.37;100.00
75006;BME280;63553;51.814;4.600;2023-11-21T05:11:04;101482.44;;;9.72;100.00
75006;BME280;63553;51.814;4.600;2023-11-21T05:13:33;101487.47;;;9.70;99.74
75006;BME280;63553;51.814;4.600;2023-11-21T05:15:59;101483.78;;;9.75;100.00
75006;BME280;63553;51.814;4.600;2023-11-21T05:18:24;101488.53;;;9.56;100.00
75006;BME280;63553;51.814;4.600;2023-11-21T05:20:55;101492.19;;;9.51;100.00
75006;BME280;63553;51.814;4.600;2023-11-21T05:23:20;101497.69;;;9.75;100.00
75006;BME280;63553;51.814;4.600;2023-11-21T05:25:45;101495.66;;;11.32;100.00
75006;BME280;63553;51.814;4.600;2023-11-21T05:28:11;101501.13;;;11.37;94.46
75006;BME280;63553;51.814;4.600;2023-11-21T05:30:37;101508.25;;;11.15;91.18
75006;BME280;63553;51.814;4.600;2023-11-21T05:33:04;101504.81;;;11.32;94.50
75006;BME280;63553;51.814;4.600;2023-11-21T05:35:29;101512.75;;;12.24;92.61
75006;BME280;63553;51.814;4.600;2023-11-21T05:37:54;101513.34;;;12.65;88.99
75006;BME280;63553;51.814;4.600;2023-11-21T05:40:20;101513.72;;;12.50;85.78
75006;BME280;63553;51.814;4.600;2023-11-21T05:42:47;101525.16;;;12.18;87.95
75006;BME280;63553;51.814;4.600;2023-11-21T05:45:13;101519.97;;;12.78;88.00
75006;BME280;63553;51.814;4.600;2023-11-21T05:47:41;101528.63;;;11.38;87.45
75006;BME280;63553;51.814;4.600;2023-11-21T05:50:08;101526.19;;;11.37;88.42
75006;BME280;63553;51.814;4.600;2023-11-21T05:52:39;101516.59;;;10.88;90.26
75006;BME280;63553;51.814;4.600;2023-11-21T05:55:05;101530.34;;;10.20;95.00
75006;BME280;63553;51.814;4.600;2023-11-21T05:57:33;101540.63;;;10.20;96.50
75006;BME280;63553;51.814;4.600;2023-11-21T05:59:58;101548.31;;;10.04;96.91
75006;BME280;63553;51.814;4.600;2023-11-21T06:02:24;101544.53;;;10.00;98.10
75006;BME280;63553;51.814;4.600;2023-11-21T06:04:51;101552.94;;;10.32;97.71
75006;BME280;63553;51.814;4.600;2023-11-21T06:07:16;101554.34;;;10.62;95.86
75006;BME280;63553;51.814;4.600;2023-11-21T06:09:42;101565.16;;;10.31;94.75
75006;BME280;63553;51.814;4.600;2023-11-21T06:12:07;101563.50;;;9.93;96.87
75006;BME280;63553;51.814;4.600;2023-11-21T06:14:32;101564.03;;;9.76;98.37
75006;BME280;63553;51.814;4.600;2023-11-21T06:17:00;101559.72;;;9.65;99.35
75006;BME280;63553;51.814;4.600;2023-11-21T06:19:25;101573.16;;;9.58;99.82
75006;BME280;63553;51.814;4.600;2023-11-21T06:21:51;101564.91;;;9.53;99.62
75006;BME280;63553;51.814;4.600;2023-11-21T06:24:16;101572.97;;;9.73;99.00
75006;BME280;63553;51.814;4.600;2023-11-21T06:26:42;101573.75;;;10.16;95.19
75006;BME280;63553;51.814;4.600;2023-11-21T06:29:08;101580.94;;;10.36;95.80
75006;BME280;63553;51.814;4.600;2023-11-21T06:31:33;101586.03;;;9.91;95.16
75006;BME280;63553;51.814;4.600;2023-11-21T06:33:58;101587.91;;;9.96;94.94
75006;BME280;63553;51.814;4.600;2023-11-21T06:36:25;101590.41;;;9.97;95.12
75006;BME280;63553;51.814;4.600;2023-11-21T06:38:51;101595.97;;;10.35;93.47
75006;BME280;63553;51.814;4.600;2023-11-21T06:41:17;101591.88;;;9.90;94.56
75006;BME280;63553;51.814;4.600;2023-11-21T06:43:42;101596.59;;;9.89;96.22
75006;BME280;63553;51.814;4.600;2023-11-21T06:46:11;101598.94;;;9.82;96.13
75006;BME280;63553;51.814;4.600;2023-11-21T06:48:37;101611.19;;;10.37;96.79
75006;BME280;63553;51.814;4.600;2023-11-21T06:51:03;101619.31;;;10.85;92.23
75006;BME280;63553;51.814;4.600;2023-11-21T06:53:29;101623.38;;;10.23;92.96
75006;BME280;63553;51.814;4.600;2023-11-21T06:55:54;101613.13;;;9.81;95.96
75006;BME280;63553;51.814;4.600;2023-11-21T06:58:20;101619.03;;;9.74;97.36
75006;BME280;63553;51.814;4.600;2023-11-21T07:00:45;101624.84;;;9.54;97.77
75006;BME280;63553;51.814;4.600;2023-11-21T07:03:13;101616.84;;;9.29;99.04
75006;BME280;63553;51.814;4.600;2023-11-21T07:05:39;101620.03;;;9.12;99.98
75006;BME280;63553;51.814;4.600;2023-11-21T07:08:04;101628.72;;;9.06;100.00
75006;BME280;63553;51.814;4.600;2023-11-21T07:10:29;101630.72;;;9.00;100.00
75006;BME280;63553;51.814;4.600;2023-11-21T07:12:55;101629.63;;;10.15;100.00
75006;BME280;63553;51.814;4.600;2023-11-21T07:15:22;101635.47;;;10.13;93.13
75006;BME280;63553;51.814;4.600;2023-11-21T07:17:47;101633.69;;;9.32;94.72
75006;BME280;63553;51.814;4.600;2023-11-21T07:20:13;101647.84;;;9.07;97.28
75006;BME280;63553;51.814;4.600;2023-11-21T07:22:42;101647.66;;;8.99;97.74
75006;BME280;63553;51.814;4.600;2023-11-21T07:25:07;101656.13;;;9.36;99.11
75006;BME280;63553;51.814;4.600;2023-11-21T07:27:34;101661.66;;;9.41;97.57
75006;BME280;63553;51.814;4.600;2023-11-21T07:30:01;101661.00;;;9.25;96.83
75006;BME280;63553;51.814;4.600;2023-11-21T07:32:29;101666.38;;;9.64;96.79
75006;BME280;63553;51.814;4.600;2023-11-21T07:34:55;101670.69;;;10.74;96.50
75006;BME280;63553;51.814;4.600;2023-11-21T07:37:22;101682.56;;;10.79;93.03
75006;BME280;63553;51.814;4.600;2023-11-21T07:39:47;101685.53;;;10.08;93.90
75006;BME280;63553;51.814;4.600;2023-11-21T07:42:13;101677.03;;;10.23;94.64
75006;BME280;63553;51.814;4.600;2023-11-21T07:44:38;101693.84;;;10.32;95.39
75006;BME280;63553;51.814;4.600;2023-11-21T07:47:04;101695.13;;;10.39;95.06
75006;BME280;63553;51.814;4.600;2023-11-21T07:49:29;101693.25;;;10.53;95.21
75006;BME280;63553;51.814;4.600;2023-11-21T07:51:55;101695.72;;;10.36;96.52
75006;BME280;63553;51.814;4.600;2023-11-21T07:54:20;101694.75;;;10.46;95.24
75006;BME280;63553;51.814;4.600;2023-11-21T07:56:46;101699.06;;;10.57;95.01
75006;BME280;63553;51.814;4.600;2023-11-21T07:59:12;101707.28;;;11.59;96.03
75006;BME280;63553;51.814;4.600;2023-11-21T08:01:39;101703.69;;;11.12;92.06
75006;BME280;63553;51.814;4.600;2023-11-21T08:04:05;101710.81;;;13.35;90.59
75006;BME280;63553;51.814;4.600;2023-11-21T08:06:32;101715.09;;;13.32;94.19
75006;BME280;63553;51.814;4.600;2023-11-21T08:08:58;101722.00;;;14.14;87.69
75006;BME280;63553;51.814;4.600;2023-11-21T08:11:24;101720.47;;;14.38;86.92
75006;BME280;63553;51.814;4.600;2023-11-21T08:13:49;101721.81;;;15.10;80.74
75006;BME280;63553;51.814;4.600;2023-11-21T08:16:14;101725.78;;;14.83;80.33
75006;BME280;63553;51.814;4.600;2023-11-21T08:18:40;101730.56;;;14.09;82.01
75006;BME280;63553;51.814;4.600;2023-11-21T08:21:06;101736.63;;;14.11;81.87
75006;BME280;63553;51.814;4.600;2023-11-21T08:23:33;101742.75;;;13.73;79.61
75006;BME280;63553;51.814;4.600;2023-11-21T08:25:59;101745.00;;;14.41;81.89
75006;BME280;63553;51.814;4.600;2023-11-21T08:28:24;101742.56;;;14.74;80.30
75006;BME280;63553;51.814;4.600;2023-11-21T08:30:51;101743.72;;;15.08;78.47
75006;BME280;63553;51.814;4.600;2023-11-21T08:33:17;101742.19;;;15.62;75.48
75006;BME280;63553;51.814;4.600;2023-11-21T08:35:43;101747.44;;;13.86;76.28
75006;BME280;63553;51.814;4.600;2023-11-21T08:38:09;101746.50;;;13.16;80.18
75006;BME280;63553;51.814;4.600;2023-11-21T08:40:35;101745.75;;;14.25;82.69
75006;BME280;63553;51.814;4.600;2023-11-21T08:43:01;101744.88;;;14.89;78.07
75006;BME280;63553;51.814;4.600;2023-11-21T08:45:28;101752.00;;;14.22;80.59
75006;BME280;63553;51.814;4.600;2023-11-21T08:47:53;101747.84;;;15.01;77.54
75006;BME280;63553;51.814;4.600;2023-11-21T08:50:18;101750.31;;;14.94;77.59
75006;BME280;63553;51.814;4.600;2023-11-21T08:52:45;101764.09;;;14.48;74.75
75006;BME280;63553;51.814;4.600;2023-11-21T08:55:14;101759.19;;;15.31;75.15
75006;BME280;63553;51.814;4.600;2023-11-21T08:57:40;101757.69;;;15.42;74.72
75006;BME280;63553;51.814;4.600;2023-11-21T09:00:07;101762.81;;;15.31;74.09
75006;BME280;63553;51.814;4.600;2023-11-21T09:02:39;101764.16;;;15.25;74.15
75006;BME280;63553;51.814;4.600;2023-11-21T09:05:07;101766.44;;;15.49;73.26
75006;BME280;63553;51.814;4.600;2023-11-21T09:07:34;101765.78;;;15.35;74.25
75006;BME280;63553;51.814;4.600;2023-11-21T09:09:59;101767.91;;;15.55;73.21
75006;BME280;63553;51.814;4.600;2023-11-21T09:12:24;101772.72;;;15.20;75.09
75006;BME280;63553;51.814;4.600;2023-11-21T09:14:50;101774.00;;;15.57;73.54
75006;BME280;63553;51.814;4.600;2023-11-21T09:17:16;101783.28;;;15.23;74.92
75006;BME280;63553;51.814;4.600;2023-11-21T09:19:41;101785.56;;;15.55;73.47
75006;BME280;63553;51.814;4.600;2023-11-21T09:22:08;101793.44;;;15.62;71.94
75006;BME280;63553;51.814;4.600;2023-11-21T09:24:34;101798.25;;;14.28;77.00
75006;BME280;63553;51.814;4.600;2023-11-21T09:27:00;101791.97;;;14.70;77.40
75006;BME280;63553;51.814;4.600;2023-11-21T09:29:28;101795.34;;;14.41;79.23
75006;BME280;63553;51.814;4.600;2023-11-21T09:31:54;101793.75;;;14.10;79.95
75006;BME280;63553;51.814;4.600;2023-11-21T09:34:22;101799.41;;;15.26;75.72
75006;BME280;63553;51.814;4.600;2023-11-21T09:36:47;101806.53;;;14.33;77.39
75006;BME280;63553;51.814;4.600;2023-11-21T09:40:46;101814.59;;;13.73;79.07
75006;BME280;63553;51.814;4.600;2023-11-21T09:43:18;101822.97;;;15.17;75.92
75006;BME280;63553;51.814;4.600;2023-11-21T09:45:46;101823.81;;;15.34;75.15
75006;BME280;63553;51.814;4.600;2023-11-21T09:48:16;101829.16;;;14.62;77.37
75006;BME280;63553;51.814;4.600;2023-11-21T09:50:43;101839.69;;;14.65;74.29
75006;BME280;63553;51.814;4.600;2023-11-21T09:53:19;101832.19;;;15.09;75.84
75006;BME280;63553;51.814;4.600;2023-11-21T09:55:53;101846.59;;;13.67;78.01
75006;BME280;63553;51.814;4.600;2023-11-21T09:58:19;101860.00;;;13.34;79.17
75006;BME280;63553;51.814;4.600;2023-11-21T10:00:48;101852.72;;;12.61;82.27
75006;BME280;63553;51.814;4.600;2023-11-21T10:03:14;101862.09;;;12.65;85.49
75006;BME280;63553;51.814;4.600;2023-11-21T10:05:42;101862.22;;;12.47;84.52
75006;BME280;63553;51.814;4.600;2023-11-21T10:08:09;101866.75;;;13.33;84.60
75006;BME280;63553;51.814;4.600;2023-11-21T10:10:36;101870.41;;;13.20;84.07
75006;BME280;63553;51.814;4.600;2023-11-21T10:13:03;101879.03;;;12.82;85.34
75006;BME280;63553;51.814;4.600;2023-11-21T10:15:36;101892.25;;;12.91;84.60
75006;BME280;63553;51.814;4.600;2023-11-21T10:18:07;101887.78;;;13.17;84.89
75006;BME280;63553;51.814;4.600;2023-11-21T10:20:33;101901.97;;;12.39;84.86
75006;BME280;63553;51.814;4.600;2023-11-21T10:23:03;101894.94;;;12.27;85.24
75006;BME280;63553;51.814;4.600;2023-11-21T10:25:32;101892.56;;;13.74;85.01
75006;BME280;63553;51.814;4.600;2023-11-21T10:28:01;101903.84;;;13.91;79.44
75006;BME280;63553;51.814;4.600;2023-11-21T10:30:34;101911.19;;;14.10;79.52
75006;BME280;63553;51.814;4.600;2023-11-21T10:33:02;101914.09;;;13.38;78.56
75006;BME280;63553;51.814;4.600;2023-11-21T10:35:47;101913.63;;;12.27;83.23
75006;BME280;63553;51.814;4.600;2023-11-21T10:38:17;101920.59;;;12.57;83.43
75006;BME280;63553;51.814;4.600;2023-11-21T10:40:43;101910.97;;;13.40;79.90
75006;BME280;63553;51.814;4.600;2023-11-21T10:43:10;101925.13;;;12.39;81.24
75006;BME280;63553;51.814;4.600;2023-11-21T10:45:37;101924.41;;;13.96;83.16
75006;BME280;63553;51.814;4.600;2023-11-21T10:48:13;101916.28;;;13.63;78.57
75006;BME280;63553;51.814;4.600;2023-11-21T10:50:46;101920.97;;;14.21;76.24
75006;BME280;63553;51.814;4.600;2023-11-21T10:53:11;101932.81;;;14.40;76.32
75006;BME280;63553;51.814;4.600;2023-11-21T10:55:37;101949.53;;;14.09;75.02
75006;BME280;63553;51.814;4.600;2023-11-21T10:58:04;101954.38;;;14.26;74.03
75006;BME280;63553;51.814;4.600;2023-11-21T11:00:32;101954.66;;;15.25;71.14
75006;BME280;63553;51.814;4.600;2023-11-21T11:02:58;101968.22;;;13.42;76.28
75006;BME280;63553;51.814;4.600;2023-11-21T11:05:26;101965.66;;;12.77;81.78
75006;BME280;63553;51.814;4.600;2023-11-21T11:08:04;101960.25;;;12.40;83.38
75006;BME280;63553;51.814;4.600;2023-11-21T11:10:29;101972.06;;;13.05;80.50
75006;BME280;63553;51.814;4.600;2023-11-21T11:12:56;101969.41;;;11.95;82.62
75006;BME280;63553;51.814;4.600;2023-11-21T11:15:26;101974.19;;;12.40;81.96
75006;BME280;63553;51.814;4.600;2023-11-21T11:17:52;101969.06;;;12.15;83.95
75006;BME280;63553;51.814;4.600;2023-11-21T11:20:23;101984.69;;;12.30;83.48
75006;BME280;63553;51.814;4.600;2023-11-21T11:25:43;101971.81;;;12.01;83.54
75006;BME280;63553;51.814;4.600;2023-11-21T11:28:14;101966.09;;;11.55;85.64
75006;BME280;63553;51.814;4.600;2023-11-21T11:31:00;101963.56;;;11.78;84.00
75006;BME280;63553;51.814;4.600;2023-11-21T11:33:47;101969.66;;;11.80;84.45
75006;BME280;63553;51.814;4.600;2023-11-21T11:36:29;101970.41;;;11.66;84.40
75006;BME280;63553;51.814;4.600;2023-11-21T11:38:59;101979.06;;;11.84;82.64
75006;BME280;63553;51.814;4.600;2023-11-21T11:41:28;101981.06;;;12.89;82.87
75006;BME280;63553;51.814;4.600;2023-11-21T11:43:58;101974.97;;;12.27;81.14
75006;BME280;63553;51.814;4.600;2023-11-21T11:46:43;101982.28;;;11.91;84.47
75006;BME280;63553;51.814;4.600;2023-11-21T11:49:23;101972.03;;;12.05;85.30
75006;BME280;63553;51.814;4.600;2023-11-21T11:54:55;101979.09;;;13.03;81.67
75006;BME280;63553;51.814;4.600;2023-11-21T11:57:24;101985.63;;;12.25;81.76
75006;BME280;63553;51.814;4.600;2023-11-21T12:02:38;101988.13;;;12.40;81.17
75006;BME280;63553;51.814;4.600;2023-11-21T12:05:12;101986.97;;;12.27;82.34
75006;BME280;63553;51.814;4.600;2023-11-21T12:07:46;102003.59;;;13.06;79.09
75006;BME280;63553;51.814;4.600;2023-11-21T12:10:16;101995.66;;;13.26;76.84
75006;BME280;63553;51.814;4.600;2023-11-21T12:13:08;101997.81;;;13.79;77.19
75006;BME280;63553;51.814;4.600;2023-11-21T12:15:33;102013.34;;;13.22;76.29
75006;BME280;63553;51.814;4.600;2023-11-21T12:17:59;102009.72;;;12.35;79.67
75006;BME280;63553;51.814;4.600;2023-11-21T12:20:25;102011.16;;;12.32;80.46
75006;BME280;63553;51.814;4.600;2023-11-21T12:22:51;102023.28;;;12.55;79.13
75006;BME280;63553;51.814;4.600;2023-11-21T12:25:18;102025.25;;;12.22;81.16
75006;BME280;63553;51.814;4.600;2023-11-21T12:27:49;102024.53;;;11.98;82.73
75006;BME280;63553;51.814;4.600;2023-11-21T12:30:16;102022.88;;;11.97;83.77
75006;BME280;63553;51.814;4.600;2023-11-21T12:32:49;102022.38;;;12.27;83.18
75006;BME280;63553;51.814;4.600;2023-11-21T12:35:16;102020.88;;;11.84;85.02
75006;BME280;63553;51.814;4.600;2023-11-21T12:37:45;102025.59;;;12.80;83.00
75006;BME280;63553;51.814;4.600;2023-11-21T12:40:12;102034.81;;;12.02;84.48
75006;BME280;63553;51.814;4.600;2023-11-21T12:42:41;102036.09;;;11.67;85.79
75006;BME280;63553;51.814;4.600;2023-11-21T12:45:08;102046.34;;;11.53;84.96
75006;BME280;63553;51.814;4.600;2023-11-21T12:47:37;102050.47;;;11.80;84.77
75006;BME280;63553;51.814;4.600;2023-11-21T12:50:03;102049.50;;;12.40;81.96
75006;BME280;63553;51.814;4.600;2023-11-21T12:52:30;102049.53;;;12.21;82.34
75006;BME280;63553;51.814;4.600;2023-11-21T12:54:56;102057.84;;;11.04;85.88
75006;BME280;63553;51.814;4.600;2023-11-21T12:57:25;102063.41;;;11.89;85.47
75006;BME280;63553;51.814;4.600;2023-11-21T12:59:57;102059.88;;;11.41;86.09